Time;durP1;ratioP1;P1;durP2;ratioP2;P2;SDS_P1;SDS_P2;PMS_P1;PMS_P2;Temp;Humidity;BMP_temperature;BMP_pressure;BME280_temperature;BME280_humidity;BME280_pressure;Samples;Min_cycle;Max_cycle;Signal;HPM_P1;HPM_P2
2021/03/22 00:01:02;;;;;;;4.75;3.70;;;;;;;;;;4991614;28;20383;-71
2021/03/22 00:03:29;;;;;;;5.65;4.30;;;;;;;;;;4991563;28;20739;-71
2021/03/22 00:05:55;;;;;;;3.55;3.25;;;;;;;;;;4990773;28;20454;-70
2021/03/22 00:08:22;;;;;;;5.05;4.20;;;;;;;;;;4996877;28;20385;-70
2021/03/22 00:10:49;;;;;;;4.53;3.60;;;;;;;;;;4996209;28;20468;-69
2021/03/22 00:13:17;;;;;;;5.97;3.97;;;3.60;99.90;;;;;;4990742;28;20387;-69
2021/03/22 00:15:44;;;;;;;4.53;3.72;;;;;;;;;;4991229;28;20803;-69
2021/03/22 00:18:12;;;;;;;4.30;3.38;;;;;;;;;;4990588;28;20378;-69
2021/03/22 00:20:38;;;;;;;4.70;3.40;;;;;;;;;;4991467;28;20521;-69
2021/03/22 00:23:04;;;;;;;5.72;4.07;;;;;;;;;;5002771;28;20474;-69
2021/03/22 00:25:30;;;;;;;5.15;4.00;;;;;;;;;;5010587;28;20455;-69
2021/03/22 00:27:58;;;;;;;4.28;3.88;;;3.60;99.90;;;;;;5025047;28;20411;-70
2021/03/22 00:30:26;;;;;;;4.90;3.78;;;;;;;;;;5010892;28;20877;-69
2021/03/22 00:32:52;;;;;;;4.75;4.28;;;;;;;;;;4994648;28;20390;-72
2021/03/22 00:35:19;;;;;;;5.13;4.00;;;;;;;;;;4991170;28;20461;-69
2021/03/22 00:37:45;;;;;;;4.20;3.50;;;;;;;;;;5006047;28;20483;-70
2021/03/22 00:40:13;;;;;;;5.75;4.35;;;;;;;;;;5005464;28;20399;-70
2021/03/22 00:42:39;;;;;;;5.60;4.10;;;;;;;;;;4990661;28;20413;-69
2021/03/22 00:45:06;;;;;;;6.32;4.15;;;;;;;;;;4989985;28;20378;-70
2021/03/22 00:47:32;;;;;;;9.07;4.28;;;;;;;;;;4991274;28;20737;-70
2021/03/22 00:49:58;;;;;;;5.72;4.70;;;;;;;;;;4990054;28;20410;-71
2021/03/22 00:52:25;;;;;;;5.10;3.75;;;;;;;;;;4990864;28;20898;-70
2021/03/22 00:54:51;;;;;;;5.88;4.20;;;;;;;;;;5006227;28;20868;-69
2021/03/22 00:57:17;;;;;;;5.40;4.43;;;;;;;;;;4990072;28;20871;-70
2021/03/22 00:59:43;;;;;;;4.75;3.78;;;;;;;;;;4991066;28;20745;-70
2021/03/22 01:02:09;;;;;;;4.93;3.75;;;;;;;;;;4990163;28;20935;-70
2021/03/22 01:04:35;;;;;;;4.95;4.15;;;;;;;;;;4990887;28;20378;-70
2021/03/22 01:07:01;;;;;;;4.72;4.30;;;;;;;;;;4990323;28;20414;-70
2021/03/22 01:09:27;;;;;;;5.00;4.20;;;;;;;;;;4990992;28;20491;-70
2021/03/22 01:11:54;;;;;;;5.53;4.25;;;;;;;;;;5005954;28;20449;-73
2021/03/22 01:14:20;;;;;;;6.90;4.38;;;;;;;;;;4990562;28;20371;-69
2021/03/22 01:16:47;;;;;;;6.03;4.00;;;;;;;;;;4993105;28;20382;-70
2021/03/22 01:19:15;;;;;;;5.72;4.53;;;;;;;;;;4993915;28;20513;-70
2021/03/22 01:21:49;;;;;;;4.68;4.25;;;3.70;99.90;;;;;;4994595;28;20409;-70
2021/03/22 01:24:16;;;;;;;6.53;4.40;;;;;;;;;;4993885;28;20474;-70
2021/03/22 01:26:43;;;;;;;5.10;4.10;;;;;;;;;;4994243;28;20382;-69
2021/03/22 01:29:20;;;;;;;6.00;4.40;;;;;;;;;;4993643;28;20425;-70
2021/03/22 01:31:47;;;;;;;5.72;4.30;;;;;;;;;;5000886;28;20730;-70
2021/03/22 01:34:13;;;;;;;4.70;3.80;;;;;;;;;;5012862;28;20382;-70
2021/03/22 01:36:39;;;;;;;6.00;4.03;;;;;;;;;;5013609;28;20400;-70
2021/03/22 01:39:10;;;;;;;4.70;4.00;;;;;;;;;;5028310;28;20440;-70
2021/03/22 01:41:54;;;;;;;6.00;4.80;;;;;;;;;;5013587;28;20404;-69
2021/03/22 01:44:31;;;;;;;5.68;5.07;;;3.30;99.90;;;;;;5013098;28;20381;-70
2021/03/22 01:46:58;;;;;;;5.63;4.43;;;;;;;;;;5013355;28;20388;-73
2021/03/22 01:49:27;;;;;;;5.55;4.30;;;;;;;;;;5013601;28;20413;-69
2021/03/22 01:51:54;;;;;;;5.70;4.00;;;;;;;;;;5013367;28;20433;-70
2021/03/22 01:54:20;;;;;;;6.72;4.75;;;;;;;;;;5012833;28;20380;-70
2021/03/22 01:56:53;;;;;;;6.63;4.60;;;;;;;;;;5013494;28;20377;-70
2021/03/22 01:59:37;;;;;;;6.05;4.15;;;2.60;99.90;;;;;;5012982;28;20377;-69
2021/03/22 02:02:03;;;;;;;5.60;3.90;;;;;;;;;;5012917;28;20429;-69
2021/03/22 02:04:30;;;;;;;5.28;3.97;;;;;;;;;;5013445;28;20381;-69
2021/03/22 02:06:57;;;;;;;5.13;3.67;;;;;;;;;;5028231;28;20400;-69
2021/03/22 02:09:22;;;;;;;8.20;4.93;;;2.60;99.90;;;;;;5012696;28;20491;-68
2021/03/22 02:11:48;;;;;;;6.50;4.38;;;;;;;;;;5013201;28;20389;-69
2021/03/22 02:14:14;;;;;;;6.72;4.68;;;;;;;;;;5027653;28;20424;-69
2021/03/22 02:16:43;;;;;;;7.18;4.68;;;2.80;99.90;;;;;;5013107;28;20380;-69
2021/03/22 02:19:27;;;;;;;6.20;4.05;;;2.30;99.90;;;;;;5012069;28;20389;-70
2021/03/22 02:21:53;;;;;;;5.25;4.38;;;;;;;;;;5012912;28;20387;-69
2021/03/22 02:24:53;;;;;;;6.13;4.78;;;2.40;99.90;;;;;;5027485;28;20416;-69
2021/03/22 02:27:49;;;;;;;6.47;4.55;;;2.80;99.90;;;;;;5012174;28;20377;-70
2021/03/22 02:30:27;;;;;;;8.30;4.38;;;;;;;;;;5011837;28;20869;-70
2021/03/22 02:33:11;;;;;;;5.33;4.00;;;;;;;;;;4997351;28;20867;-70
2021/03/22 02:35:47;;;;;;;6.20;4.60;;;;;;;;;;4993050;28;20390;-69
2021/03/22 02:38:16;;;;;;;7.32;4.80;;;;;;;;;;4992482;28;20449;-70
2021/03/22 02:40:54;;;;;;;5.65;4.60;;;;;;;;;;4993215;28;20402;-70
2021/03/22 02:43:20;;;;;;;6.95;5.00;;;2.20;99.90;;;;;;4992233;28;20484;-69
2021/03/22 02:45:46;;;;;;;6.15;4.95;;;;;;;;;;4992791;28;20391;-70
2021/03/22 02:48:17;;;;;;;7.97;5.00;;;;;;;;;;5007165;28;20419;-69
2021/03/22 02:50:44;;;;;;;7.03;4.85;;;;;;;;;;4993017;28;20407;-70
2021/03/22 02:53:13;;;;;;;7.70;5.13;;;;;;;;;;4992061;28;20391;-70
2021/03/22 02:55:48;;;;;;;8.98;5.68;;;;;;;;;;4992583;28;20405;-70
2021/03/22 02:58:15;;;;;;;7.60;4.43;;;;;;;;;;4991659;28;20390;-70
2021/03/22 03:01:02;;;;;;;6.95;4.45;;;;;;;;;;4992761;28;20462;-69
2021/03/22 03:03:29;;;;;;;5.53;4.47;;;;;;;;;;4990727;28;20465;-69
2021/03/22 03:05:55;;;;;;;6.00;4.20;;;;;;;;;;4993009;28;20391;-69
2021/03/22 03:08:24;;;;;;;7.47;4.38;;;;;;;;;;4991971;28;20390;-69
2021/03/22 03:10:49;;;;;;;6.70;4.75;;;1.80;99.90;;;;;;4992486;28;20420;-69
2021/03/22 03:13:15;;;;;;;5.23;4.60;;;;;;;;;;4991408;28;20390;-69
2021/03/22 03:15:41;;;;;;;9.13;4.57;;;;;;;;;;4992577;28;20859;-69
2021/03/22 03:18:07;;;;;;;8.05;4.50;;;;;;;;;;4991632;28;20830;-69
2021/03/22 03:20:34;;;;;;;8.13;5.30;;;1.90;99.90;;;;;;4992446;28;20434;-69
2021/03/22 03:23:00;;;;;;;5.80;5.00;;;2.00;99.90;;;;;;4992281;28;20390;-69
2021/03/22 03:25:27;;;;;;;6.72;5.00;;;;;;;;;;4991494;28;20804;-69
2021/03/22 03:27:54;;;;;;;5.80;3.83;;;;;;;;;;4992432;28;20720;-69
2021/03/22 03:30:24;;;;;;;5.88;4.53;;;1.60;99.90;;;;;;4991342;28;20406;-69
2021/03/22 03:32:50;;;;;;;7.30;5.00;;;;;;;;;;5007404;28;20416;-69
2021/03/22 03:35:17;;;;;;;7.28;5.15;;;;;;;;;;5010834;28;20376;-69
2021/03/22 03:37:43;;;;;;;6.00;4.38;;;;;;;;;;5011302;28;20498;-69
2021/03/22 03:40:15;;;;;;;5.57;4.63;;;;;;;;;;5010118;28;20423;-69
2021/03/22 03:42:41;;;;;;;8.35;4.75;;;1.70;99.90;;;;;;5011179;28;20800;-69
2021/03/22 03:45:11;;;;;;;5.50;4.70;;;;;;;;;;5011068;28;20388;-71
2021/03/22 03:47:38;;;;;;;7.00;4.50;;;;;;;;;;5011671;28;20409;-69
2021/03/22 03:50:06;;;;;;;7.78;4.30;;;;;;;;;;5010897;28;20412;-72
2021/03/22 03:52:32;;;;;;;5.82;4.03;;;;;;;;;;5011414;28;20373;-69
2021/03/22 03:54:58;;;;;;;5.90;4.10;;;;;;;;;;5011131;28;20379;-69
2021/03/22 03:57:24;;;;;;;6.60;4.72;;;;;;;;;;5010436;28;20849;-69
2021/03/22 03:59:50;;;;;;;7.75;4.22;;;;;;;;;;5011231;28;20884;-69
2021/03/22 04:02:16;;;;;;;4.88;4.10;;;1.30;99.90;;;;;;5010219;28;20377;-69
2021/03/22 04:04:42;;;;;;;5.70;4.10;;;;;;;;;;5011164;28;20411;-69
2021/03/22 04:07:08;;;;;;;5.00;3.88;;;;;;;;;;5010169;28;20393;-72
2021/03/22 04:09:34;;;;;;;6.00;4.32;;;;;;;;;;5011051;28;20435;-69
2021/03/22 04:12:00;;;;;;;7.03;4.15;;;;;;;;;;5011084;28;20377;-69
2021/03/22 04:14:27;;;;;;;7.20;4.30;;;;;;;;;;5010247;28;20361;-69
2021/03/22 04:16:53;;;;;;;7.20;4.50;;;;;;;;;;5010831;28;20936;-69
2021/03/22 04:19:20;;;;;;;8.00;3.95;;;;;;;;;;5009971;28;20419;-69
2021/03/22 04:21:46;;;;;;;5.20;4.15;;;;;;;;;;5010991;28;20399;-69
2021/03/22 04:24:13;;;;;;;7.43;4.90;;;;;;;;;;5010151;28;20388;-70
2021/03/22 04:26:39;;;;;;;8.30;4.70;;;;;;;;;;5010694;28;20377;-70
2021/03/22 04:29:05;;;;;;;7.40;5.30;;;;;;;;;;5010642;28;20377;-73
2021/03/22 04:31:31;;;;;;;5.90;4.30;;;;;;;;;;5005646;28;20387;-69
2021/03/22 04:33:58;;;;;;;9.07;4.60;;;;;;;;;;4991241;28;20389;-69
2021/03/22 04:36:25;;;;;;;7.35;4.50;;;;;;;;;;4990408;28;20457;-69
2021/03/22 04:38:52;;;;;;;6.78;4.90;;;;;;;;;;4991178;28;20382;-69
2021/03/22 04:41:18;;;;;;;9.65;5.05;;;;;;;;;;4990011;28;20949;-70
2021/03/22 04:43:44;;;;;;;6.77;4.80;;;;;;;;;;4991207;28;20418;-69
2021/03/22 04:46:10;;;;;;;8.45;5.40;;;;;;;;;;4990446;28;20437;-72
2021/03/22 04:48:36;;;;;;;8.43;5.30;;;;;;;;;;4991064;28;20402;-69
2021/03/22 04:51:03;;;;;;;6.40;4.78;;;1.70;99.90;;;;;;4994190;28;20448;-69
2021/03/22 04:53:29;;;;;;;8.00;4.60;;;;;;;;;;4994260;28;20405;-68
2021/03/22 04:55:55;;;;;;;8.82;4.47;;;;;;;;;;4994932;28;20383;-69
2021/03/22 04:58:21;;;;;;;7.22;5.30;;;;;;;;;;5009141;28;20799;-69
2021/03/22 05:00:47;;;;;;;8.23;4.88;;;;;;;;;;4994837;28;20898;-69
2021/03/22 05:03:16;;;;;;;8.02;4.20;;;1.10;99.90;;;;;;5009357;28;20477;-69
2021/03/22 05:05:43;;;;;;;7.65;4.60;;;;;;;;;;5010229;28;20783;-69
2021/03/22 05:08:10;;;;;;;7.70;4.20;;;;;;;;;;4994964;28;20395;-72
2021/03/22 05:10:39;;;;;;;7.10;4.43;;;;;;;;;;5010025;28;20933;-70
2021/03/22 05:13:06;;;;;;;6.53;4.72;;;;;;;;;;4994808;28;20794;-70
2021/03/22 05:15:32;;;;;;;7.60;4.60;;;;;;;;;;4994146;28;21209;-70
2021/03/22 05:17:58;;;;;;;6.75;3.83;;;;;;;;;;4995004;28;20379;-68
2021/03/22 05:20:31;;;;;;;9.98;4.22;;;;;;;;;;4993913;28;20410;-70
2021/03/22 05:22:58;;;;;;;5.25;4.05;;;;;;;;;;4995058;28;20379;-70
2021/03/22 05:25:24;;;;;;;5.75;5.00;;;;;;;;;;5009068;28;20912;-71
2021/03/22 05:27:50;;;;;;;5.25;4.10;;;;;;;;;;5009791;28;20473;-69
2021/03/22 05:30:16;;;;;;;8.48;4.20;;;;;;;;;;4993491;28;20410;-71
2021/03/22 05:32:42;;;;;;;8.48;5.55;;;;;;;;;;5008915;28;20909;-70
2021/03/22 05:35:13;;;;;;;8.40;5.15;;;;;;;;;;5013848;28;20411;-69
2021/03/22 05:37:39;;;;;;;6.10;5.00;;;;;;;;;;5013902;28;20388;-69
2021/03/22 05:40:08;;;;;;;6.95;5.13;;;;;;;;;;5019503;28;20379;-69
2021/03/22 05:42:45;;;;;;;7.55;5.22;;;;;;;;;;5031954;28;20415;-71
2021/03/22 05:45:37;;;;;;;8.23;5.45;;;;;;;;;;5033096;28;20755;-74
2021/03/22 05:48:22;;;;;;;10.55;5.13;;;;;;;;;;5033543;28;20371;-71
2021/03/22 05:51:04;;;;;;;10.05;4.85;;;;;;;;;;5032055;28;20419;-71
2021/03/22 05:53:30;;;;;;;7.38;4.45;;;;;;;;;;5032504;28;20440;-70
2021/03/22 05:55:57;;;;;;;7.88;4.60;;;;;;;;;;5033326;28;20458;-70
2021/03/22 05:58:33;;;;;;;8.13;5.20;;;;;;;;;;5032662;28;20723;-71
2021/03/22 06:01:05;;;;;;;6.30;5.05;;;;;;;;;;5032976;28;20731;-70
2021/03/22 06:03:37;;;;;;;8.25;4.90;;;;;;;;;;5032319;28;20464;-70
2021/03/22 06:06:09;;;;;;;6.65;4.60;;;;;;;;;;5033296;28;20387;-69
2021/03/22 06:08:45;;;;;;;6.63;4.40;;;;;;;;;;5032739;28;20383;-69
2021/03/22 06:11:30;;;;;;;6.78;5.10;;;;;;;;;;5032925;28;20512;-70
2021/03/22 06:14:11;;;;;;;6.95;4.90;;;;;;;;;;5033219;28;20804;-70
2021/03/22 06:16:41;;;;;;;5.78;4.30;;;1.80;99.90;;;;;;5017607;28;20377;-69
2021/03/22 06:19:12;;;;;;;5.85;4.35;;;;;;;;;;5013013;28;20404;-70
2021/03/22 06:21:40;;;;;;;8.13;5.03;;;;;;;;;;5012566;28;20861;-69
2021/03/22 06:24:16;;;;;;;12.75;5.32;;;;;;;;;;5013085;28;20438;-70
2021/03/22 06:26:44;;;;;;;6.75;4.93;;;;;;;;;;5013272;28;20377;-69
2021/03/22 06:29:16;;;;;;;6.82;5.20;;;;;;;;;;5013102;28;20377;-70
2021/03/22 06:31:42;;;;;;;9.27;5.18;;;;;;;;;;5013050;28;20419;-69
2021/03/22 06:34:13;;;;;;;6.85;4.80;;;1.90;99.90;;;;;;5012972;28;20376;-70
2021/03/22 06:36:39;;;;;;;5.97;4.60;;;;;;;;;;5012434;28;20446;-69
2021/03/22 06:39:07;;;;;;;9.90;4.80;;;;;;;;;;5012841;28;20381;-69
2021/03/22 06:41:49;;;;;;;9.30;5.40;;;1.90;99.90;;;;;;5011831;28;20443;-69
2021/03/22 06:44:15;;;;;;;8.18;5.55;;;;;;;;;;5012468;28;20389;-72
2021/03/22 06:46:54;;;;;;;7.80;5.93;;;;;;;;;;5012553;28;20381;-69
2021/03/22 06:49:25;;;;;;;7.57;5.20;;;;;;;;;;5012052;28;20392;-70
2021/03/22 06:52:02;;;;;;;12.30;5.60;;;;;;;;;;5012564;28;20758;-70
2021/03/22 06:54:30;;;;;;;9.98;5.50;;;;;;;;;;5011614;28;20377;-70
2021/03/22 06:57:10;;;;;;;7.73;5.00;;;;;;;;;;5012729;28;20379;-70
2021/03/22 06:59:37;;;;;;;6.85;4.90;;;;;;;;;;5026872;28;21042;-70
2021/03/22 07:02:41;;;;;;;9.18;5.25;;;3.10;99.90;;;;;;5012849;28;20373;-70
2021/03/22 07:05:19;;;;;;;5.70;4.50;;;;;;;;;;5011788;28;20411;-70
2021/03/22 07:07:56;;;;;;;8.55;5.45;;;;;;;;;;5005919;28;21521;-70
2021/03/22 07:10:24;;;;;;;11.02;5.50;;;;;;;;;;5008377;28;20543;-71
2021/03/22 07:13:03;;;;;;;6.30;4.80;;;;;;;;;;5015327;28;20419;-70
2021/03/22 07:15:32;;;;;;;7.53;4.57;;;;;;;;;;4994505;28;20458;-70
2021/03/22 07:18:03;;;;;;;7.85;5.60;;;;;;;;;;5002224;28;20500;-71
2021/03/22 07:20:30;;;;;;;6.40;4.68;;;3.10;99.90;;;;;;4997133;28;20658;-73
2021/03/22 07:23:12;;;;;;;5.88;4.95;;;;;;;;;;4991135;28;21708;-73
2021/03/22 07:25:58;;;;;;;9.00;6.13;;;;;;;;;;4996104;28;20961;-71
2021/03/22 07:28:35;;;;;;;9.32;5.20;;;;;;;;;;4986720;28;20532;-72
2021/03/22 07:31:06;;;;;;;11.52;5.30;;;;;;;;;;4998619;28;20495;-72
2021/03/22 07:33:36;;;;;;;10.07;5.07;;;;;;;;;;4994863;28;20428;-70
2021/03/22 07:36:17;;;;;;;6.47;4.60;;;;;;;;;;5083255;27;20358;-74
2021/03/22 07:38:44;;;;;;;10.65;5.47;;;;;;;;;;5072827;28;20477;-71
2021/03/22 07:41:19;;;;;;;6.50;5.10;;;;;;;;;;5074666;28;20378;-70
2021/03/22 07:43:51;;;;;;;8.63;5.10;;;;;;;;;;5067902;28;20381;-71
2021/03/22 07:46:23;;;;;;;8.23;4.90;;;;;;;;;;5081342;28;20383;-74
2021/03/22 07:49:07;;;;;;;13.60;5.30;;;;;;;;;;5081145;28;20379;-74
2021/03/22 07:51:42;;;;;;;12.07;5.20;;;;;;;;;;5074623;28;20383;-74
2021/03/22 07:54:15;;;;;;;9.60;5.70;;;;;;;;;;5082936;28;20477;-71
2021/03/22 07:56:49;;;;;;;12.07;4.32;;;;;;;;;;5082057;28;20401;-73
2021/03/22 07:59:20;;;;;;;11.20;4.70;;;;;;;;;;5071011;28;21115;-73
2021/03/22 08:01:55;;;;;;;13.30;4.93;;;;;;;;;;5077278;28;20407;-72
2021/03/22 08:04:24;;;;;;;7.60;4.30;;;;;;;;;;5072882;28;20489;-73
2021/03/22 08:07:07;;;;;;;7.70;4.60;;;4.80;99.90;;;;;;5084990;28;20402;-71
2021/03/22 08:09:33;;;;;;;7.70;4.70;;;;;;;;;;5081637;28;20427;-74
2021/03/22 08:12:02;;;;;;;9.10;4.80;;;;;;;;;;5083432;28;20855;-73
2021/03/22 08:14:37;;;;;;;5.97;3.55;;;;;;;;;;5081016;28;20486;-71
2021/03/22 08:17:03;;;;;;;7.80;4.32;;;;;;;;;;5078169;28;20381;-74
2021/03/22 08:19:29;;;;;;;7.90;3.80;;;;;;;;;;5081768;28;20367;-71
2021/03/22 08:22:08;;;;;;;10.32;4.20;;;;;;;;;;5085253;28;20466;-69
2021/03/22 08:24:52;;;;;;;11.50;4.63;;;5.00;99.90;;;;;;5080345;28;20381;-71
2021/03/22 08:27:20;;;;;;;8.55;3.90;;;;;;;;;;5077015;28;20439;-74
2021/03/22 08:29:51;;;;;;;10.40;4.80;;;;;;;;;;5082955;28;20696;-73
2021/03/22 08:32:27;;;;;;;10.07;4.68;;;;;;;;;;5070772;28;20553;-73
2021/03/22 08:35:01;;;;;;;12.75;4.43;;;;;;;;;;5067531;28;20545;-72
2021/03/22 08:37:37;;;;;;;11.50;4.80;;;;;;;;;;5079304;28;20405;-70
2021/03/22 08:40:07;;;;;;;10.45;4.07;;;;;;;;;;5086383;28;20386;-69
2021/03/22 08:42:37;;;;;;;12.93;4.50;;;;;;;;;;5090728;28;20735;-70
2021/03/22 08:45:03;;;;;;;5.30;3.47;;;;;;;;;;5090313;28;20385;-70
2021/03/22 08:47:44;;;;;;;6.47;3.97;;;;;;;;;;5072493;28;20860;-71
2021/03/22 08:50:22;;;;;;;8.27;4.32;;;;;;;;;;5075571;28;20372;-70
2021/03/22 08:52:53;;;;;;;10.95;5.00;;;;;;;;;;5072863;28;20387;-72
2021/03/22 08:55:20;;;;;;;9.02;4.15;;;;;;;;;;5069877;28;20410;-73
2021/03/22 08:57:49;;;;;;;12.45;3.90;;;;;;;;;;5076734;28;20409;-71
2021/03/22 09:00:30;;;;;;;8.80;4.22;;;;;;;;;;5083128;28;20393;-70
2021/03/22 09:03:16;;;;;;;5.70;3.50;;;;;;;;;;5074595;28;20387;-70
2021/03/22 09:05:43;;;;;;;7.57;3.07;;;;;;;;;;5065685;28;20395;-70
2021/03/22 09:08:20;;;;;;;8.43;3.70;;;;;;;;;;5085264;28;20471;-70
2021/03/22 09:10:46;;;;;;;10.27;4.10;;;;;;;;;;5077495;28;20380;-71
2021/03/22 09:13:20;;;;;;;12.60;3.90;;;;;;;;;;5078321;28;21027;-70
2021/03/22 09:16:23;;;;;;;6.80;3.20;;;5.50;99.90;;;;;;5074909;28;20394;-71
2021/03/22 09:19:08;;;;;;;7.15;3.08;;;;;;;;;;5080388;28;20390;-73
2021/03/22 09:21:35;;;;;;;11.02;3.75;;;;;;;;;;5071890;28;20903;-71
2021/03/22 09:24:01;;;;;;;7.60;3.67;;;;;;;;;;5067163;28;20805;-73
2021/03/22 09:26:46;;;;;;;7.45;4.30;;;;;;;;;;5072913;28;20412;-72
2021/03/22 09:29:25;;;;;;;6.68;2.78;;;;;;;;;;5065722;28;20383;-73
2021/03/22 09:31:51;;;;;;;14.35;4.50;;;;;;;;;;5068542;28;20382;-70
2021/03/22 09:34:32;;;;;;;7.90;3.70;;;;;;;;;;5051898;28;21146;-71
2021/03/22 09:36:58;;;;;;;9.30;3.22;;;;;;;;;;5066307;28;20377;-71
2021/03/22 09:39:24;;;;;;;7.97;3.78;;;;;;;;;;5050037;28;21307;-73
2021/03/22 09:42:03;;;;;;;7.55;3.30;;;;;;;;;;5055826;28;20459;-73
2021/03/22 09:44:29;;;;;;;6.13;3.30;;;;;;;;;;5063461;28;20392;-71
2021/03/22 09:47:13;;;;;;;7.68;3.67;;;;;;;;;;5056235;28;20392;-73
2021/03/22 09:50:01;;;;;;;7.47;4.13;;;;;;;;;;5052170;28;20396;-73
2021/03/22 09:52:46;;;;;;;12.18;5.70;;;;;;;;;;5061185;28;20410;-72
2021/03/22 09:55:27;;;;;;;7.50;4.50;;;;;;;;;;5058006;28;20403;-71
2021/03/22 09:57:55;;;;;;;8.43;3.30;;;5.70;99.90;;;;;;5065720;28;20376;-70
2021/03/22 10:00:24;;;;;;;7.38;3.53;;;;;;;;;;5064529;28;20387;-73
2021/03/22 10:02:54;;;;;;;6.60;2.70;;;;;;;;;;5062435;28;20466;-72
2021/03/22 10:05:28;;;;;;;12.70;3.60;;;;;;;;;;5068566;28;20410;-73
2021/03/22 10:08:00;;;;;;;7.53;3.70;;;;;;;;;;5063154;28;20405;-70
2021/03/22 10:10:32;;;;;;;7.20;3.20;;;;;;;;;;5059946;28;20376;-69
2021/03/22 10:13:01;;;;;;;7.75;3.90;;;;;;;;;;5069322;28;20390;-73
2021/03/22 10:15:27;;;;;;;8.55;3.90;;;;;;;;;;5067642;28;20875;-70
2021/03/22 10:18:18;;;;;;;6.88;3.40;;;;;;;;;;5064121;28;20389;-72
2021/03/22 10:20:46;;;;;;;7.03;3.20;;;;;;;;;;5061349;28;20735;-71
2021/03/22 10:23:12;;;;;;;10.95;3.63;;;;;;;;;;5070981;28;20439;-70
2021/03/22 10:25:43;;;;;;;8.97;3.60;;;;;;;;;;5067737;28;20421;-70
2021/03/22 10:28:16;;;;;;;8.02;3.78;;;;;;;;;;5067809;28;21094;-70
2021/03/22 10:30:52;;;;;;;6.28;2.90;;;;;;;;;;5065322;28;20386;-73
2021/03/22 10:33:18;;;;;;;8.23;3.30;;;;;;;;;;5069169;28;20378;-70
2021/03/22 10:35:47;;;;;;;7.60;3.55;;;;;;;;;;5063544;28;20451;-72
2021/03/22 10:38:24;;;;;;;7.30;2.90;;;;;;;;;;5059133;28;20507;-70
2021/03/22 10:40:50;;;;;;;9.57;3.38;;;;;;;;;;5063138;28;20380;-70
2021/03/22 10:43:36;;;;;;;6.28;2.78;;;;;;;;;;5065735;28;20388;-70
2021/03/22 10:46:22;;;;;;;8.90;2.78;;;;;;;;;;5058527;28;20464;-71
2021/03/22 10:49:05;;;;;;;5.53;2.60;;;;;;;;;;5050186;28;20394;-73
2021/03/22 10:51:38;;;;;;;7.22;2.17;;;;;;;;;;5067274;28;20451;-71
2021/03/22 10:54:10;;;;;;;7.22;3.13;;;;;;;;;;5070520;28;20760;-72
2021/03/22 10:56:45;;;;;;;8.20;2.40;;;6.90;99.90;;;;;;5067011;28;20392;-70
2021/03/22 10:59:22;;;;;;;9.80;2.73;;;;;;;;;;5063068;28;20398;-70
2021/03/22 11:01:50;;;;;;;6.35;2.97;;;;;;;;;;5065167;28;21288;-70
2021/03/22 11:04:19;;;;;;;6.70;2.90;;;;;;;;;;5067761;28;20876;-70
2021/03/22 11:06:47;;;;;;;9.00;3.33;;;;;;;;;;5067385;28;20367;-71
2021/03/22 11:09:18;;;;;;;8.23;3.13;;;;;;;;;;5063527;28;20391;-70
2021/03/22 11:11:45;;;;;;;6.57;2.40;;;;;;;;;;5067158;28;20372;-73
2021/03/22 11:14:14;;;;;;;6.22;3.28;;;;;;;;;;5066216;28;20415;-70
2021/03/22 11:16:43;;;;;;;8.70;2.95;;;;;;;;;;5063892;28;21219;-70
2021/03/22 11:19:24;;;;;;;5.68;2.20;;;;;;;;;;5063761;28;20479;-68
2021/03/22 11:21:51;;;;;;;3.92;2.10;;;;;;;;;;5066273;28;20422;-69
2021/03/22 11:24:19;;;;;;;8.23;2.95;;;;;;;;;;5068436;28;20384;-71
2021/03/22 11:26:58;;;;;;;8.60;2.40;;;;;;;;;;5065784;28;20467;-69
2021/03/22 11:29:25;;;;;;;5.90;2.40;;;;;;;;;;5069325;28;20394;-69
2021/03/22 11:32:01;;;;;;;7.15;2.65;;;;;;;;;;5065466;28;20387;-69
2021/03/22 11:34:41;;;;;;;5.68;2.60;;;;;;;;;;5065433;28;20532;-69
2021/03/22 11:37:14;;;;;;;4.30;2.10;;;;;;;;;;5066112;28;20387;-69
2021/03/22 11:39:42;;;;;;;5.78;2.65;;;;;;;;;;5063533;28;20419;-72
2021/03/22 11:42:27;;;;;;;11.45;2.28;;;;;;;;;;5066480;28;20378;-72
2021/03/22 11:44:54;;;;;;;7.03;2.72;;;;;;;;;;5065321;28;20386;-69
2021/03/22 11:47:41;;;;;;;9.52;3.10;;;;;;;;;;5063904;28;20413;-73
2021/03/22 11:50:22;;;;;;;7.45;2.40;;;;;;;;;;5063228;28;20374;-69
2021/03/22 11:52:59;;;;;;;4.65;2.13;;;;;;;;;;5063945;28;20505;-70
2021/03/22 11:55:34;;;;;;;7.82;3.03;;;;;;;;;;5067488;28;20929;-68
2021/03/22 11:58:00;;;;;;;4.57;2.03;;;;;;;;;;5067193;28;20446;-69
2021/03/22 12:00:31;;;;;;;5.82;1.95;;;;;;;;;;5065617;28;20392;-70
2021/03/22 12:03:01;;;;;;;3.70;1.70;;;;;;;;;;5067316;28;20432;-68
2021/03/22 12:05:42;;;;;;;4.57;2.28;;;6.90;99.90;;;;;;5073189;28;21239;-71
2021/03/22 12:08:27;;;;;;;3.60;1.83;;;;;;;;;;5073283;28;20393;-69
2021/03/22 12:10:53;;;;;;;4.40;1.83;;;;;;;;;;5066518;28;20887;-71
2021/03/22 12:13:20;;;;;;;8.27;2.45;;;;;;;;;;5070388;28;20374;-73
2021/03/22 12:15:46;;;;;;;7.20;2.08;;;;;;;;;;5071743;28;20410;-74
2021/03/22 12:18:17;;;;;;;6.97;2.40;;;;;;;;;;5069411;28;20374;-71
2021/03/22 12:20:43;;;;;;;6.68;2.00;;;;;;;;;;5068098;28;20798;-73
2021/03/22 12:23:10;;;;;;;4.40;2.00;;;;;;;;;;5073499;28;20443;-70
2021/03/22 12:25:36;;;;;;;5.57;2.42;;;;;;;;;;5071634;28;20394;-72
2021/03/22 12:28:03;;;;;;;7.13;2.42;;;;;;;;;;5069749;28;20739;-70
2021/03/22 12:30:30;;;;;;;6.80;2.33;;;;;;;;;;5069378;28;20864;-69
2021/03/22 12:32:56;;;;;;;8.60;3.13;;;;;;;;;;5070962;28;20449;-69
2021/03/22 12:35:24;;;;;;;7.38;2.22;;;;;;;;;;5069819;28;20556;-71
2021/03/22 12:37:50;;;;;;;9.95;2.70;;;6.90;99.90;;;;;;5070551;28;20381;-69
2021/03/22 12:40:17;;;;;;;7.32;2.25;;;;;;;;;;5069694;28;20382;-70
2021/03/22 12:42:44;;;;;;;5.20;2.10;;;;;;;;;;5073023;28;20481;-70
2021/03/22 12:45:36;;;;;;;5.40;2.50;;;;;;;;;;5072016;28;20378;-68
2021/03/22 12:48:03;;;;;;;9.05;2.30;;;;;;;;;;5065997;28;20420;-69
2021/03/22 12:50:32;;;;;;;4.60;2.60;;;;;;;;;;5067435;28;20414;-69
2021/03/22 12:52:59;;;;;;;10.75;2.40;;;;;;;;;;5067779;28;21816;-71
2021/03/22 12:55:27;;;;;;;4.35;2.10;;;6.60;99.90;;;;;;5074423;28;20471;-70
2021/03/22 12:57:57;;;;;;;5.18;2.03;;;;;;;;;;5073609;28;20415;-70
2021/03/22 13:00:26;;;;;;;5.40;2.20;;;;;;;;;;5067279;28;20382;-71
2021/03/22 13:02:52;;;;;;;8.65;3.13;;;;;;;;;;5072142;28;20488;-71
2021/03/22 13:05:19;;;;;;;7.93;2.20;;;7.00;99.90;;;;;;5070454;28;20869;-71
2021/03/22 13:07:46;;;;;;;5.72;2.30;;;;;;;;;;5070546;28;20408;-72
2021/03/22 13:10:12;;;;;;;6.22;2.10;;;;;;;;;;5068655;28;20380;-71
2021/03/22 13:12:39;;;;;;;6.05;2.33;;;;;;;;;;5069407;28;20390;-70
2021/03/22 13:15:06;;;;;;;4.47;1.85;;;;;;;;;;5070372;28;20731;-69
2021/03/22 13:17:34;;;;;;;3.47;2.10;;;;;;;;;;5072294;28;20368;-71
2021/03/22 13:20:01;;;;;;;6.28;2.13;;;;;;;;;;5070334;28;20385;-69
2021/03/22 13:22:29;;;;;;;4.03;2.15;;;;;;;;;;5072702;28;20388;-71
2021/03/22 13:24:55;;;;;;;6.10;2.30;;;;;;;;;;5069643;28;20388;-70
2021/03/22 13:27:23;;;;;;;4.82;2.92;;;;;;;;;;5069940;28;20392;-70
2021/03/22 13:29:49;;;;;;;6.60;2.58;;;;;;;;;;5068361;28;20399;-72
2021/03/22 13:32:15;;;;;;;4.70;2.30;;;;;;;;;;5071190;28;20372;-70
2021/03/22 13:34:41;;;;;;;5.53;3.08;;;;;;;;;;5074157;28;20497;-69
2021/03/22 13:37:09;;;;;;;5.70;2.35;;;;;;;;;;5069285;28;20997;-71
2021/03/22 13:39:38;;;;;;;5.50;2.40;;;6.50;99.90;;;;;;5072940;28;20389;-70
2021/03/22 13:42:04;;;;;;;6.50;2.30;;;;;;;;;;5069735;28;20376;-70
2021/03/22 13:44:30;;;;;;;5.57;2.88;;;;;;;;;;5072287;28;20392;-69
2021/03/22 13:46:57;;;;;;;6.82;2.30;;;;;;;;;;5072849;28;20372;-70
2021/03/22 13:49:23;;;;;;;3.78;2.20;;;;;;;;;;5081959;28;20370;-69
2021/03/22 13:51:49;;;;;;;7.60;2.75;;;;;;;;;;5073496;28;20447;-73
2021/03/22 13:54:17;;;;;;;4.03;2.20;;;;;;;;;;5071722;28;20926;-71
2021/03/22 13:56:43;;;;;;;2.47;1.77;;;;;;;;;;5072043;28;20412;-70
2021/03/22 13:59:29;;;;;;;5.35;2.45;;;7.00;99.90;;;;;;5072446;28;21035;-69
2021/03/22 14:01:55;;;;;;;6.23;1.77;;;;;;;;;;5084820;28;20935;-71
2021/03/22 14:04:22;;;;;;;4.65;2.13;;;;;;;;;;5086996;28;20394;-69
2021/03/22 14:06:49;;;;;;;4.75;1.80;;;;;;;;;;5073762;28;20375;-71
2021/03/22 14:09:16;;;;;;;7.10;2.70;;;;;;;;;;5084396;28;20468;-69
2021/03/22 14:11:42;;;;;;;4.57;2.30;;;;;;;;;;5070516;28;20372;-69
2021/03/22 14:14:11;;;;;;;6.05;2.10;;;;;;;;;;5069663;28;20455;-71
2021/03/22 14:16:37;;;;;;;4.60;1.70;;;;;;;;;;5070327;28;20428;-69
2021/03/22 14:19:04;;;;;;;3.05;1.95;;;;;;;;;;5069817;28;20372;-69
2021/03/22 14:21:30;;;;;;;4.25;1.92;;;;;;;;;;5070555;28;20429;-71
2021/03/22 14:23:56;;;;;;;3.70;2.03;;;;;;;;;;5069141;28;20379;-70
2021/03/22 14:26:22;;;;;;;4.55;1.90;;;;;;;;;;5070245;28;20379;-70
2021/03/22 14:28:48;;;;;;;6.57;2.20;;;;;;;;;;5069083;28;20913;-71
2021/03/22 14:31:16;;;;;;;5.78;2.20;;;;;;;;;;5069874;28;20400;-69
2021/03/22 14:33:43;;;;;;;7.15;2.60;;;;;;;;;;5070214;28;20375;-70
2021/03/22 14:36:10;;;;;;;5.10;2.10;;;;;;;;;;5069819;28;20427;-68
2021/03/22 14:38:36;;;;;;;3.78;2.25;;;;;;;;;;5070433;28;20372;-69
2021/03/22 14:41:03;;;;;;;5.57;2.30;;;;;;;;;;5069924;28;20407;-71
2021/03/22 14:43:29;;;;;;;5.03;2.40;;;;;;;;;;5066204;28;20386;-72
2021/03/22 14:45:55;;;;;;;8.20;2.42;;;;;;;;;;5067442;28;20383;-70
2021/03/22 14:48:21;;;;;;;3.40;1.70;;;;;;;;;;5067290;28;20381;-71
2021/03/22 14:50:47;;;;;;;5.65;2.20;;;;;;;;;;5068756;28;20380;-71